createdAt,value
2022-08-25T00:00:06.680Z,2.45
2022-08-25T00:00:21.224Z,2.33
2022-08-25T00:00:33.489Z,2.30
2022-08-25T00:00:47.631Z,2.40
2022-08-25T00:01:00.084Z,2.30
2022-08-25T00:01:20.731Z,2.30
2022-08-25T00:01:42.185Z,2.20
2022-08-25T00:02:02.962Z,2.40
2022-08-25T00:02:15.212Z,2.57
2022-08-25T00:02:30.229Z,2.60
2022-08-25T00:02:55.679Z,2.50
2022-08-25T00:03:08.800Z,2.42
2022-08-25T00:03:20.763Z,2.45
2022-08-25T00:03:35.905Z,2.40
2022-08-25T00:03:52.297Z,2.30
2022-08-25T00:04:06.894Z,2.33
2022-08-25T00:04:19.997Z,2.50
2022-08-25T00:04:35.238Z,2.50
2022-08-25T00:04:53.599Z,2.50
2022-08-25T00:05:06.602Z,2.45
2022-08-25T00:05:20.091Z,2.40
2022-08-25T00:05:33.574Z,2.45
2022-08-25T00:05:45.754Z,2.55
2022-08-25T00:05:57.832Z,2.40
2022-08-25T00:06:11.010Z,2.50
2022-08-25T00:06:23.730Z,2.50
2022-08-25T00:06:35.685Z,2.60
2022-08-25T00:06:48.471Z,2.55
2022-08-25T00:07:03.110Z,2.40
2022-08-25T00:07:18.558Z,2.30
2022-08-25T00:07:31.199Z,2.50
2022-08-25T00:07:43.114Z,2.78
2022-08-25T00:07:55.543Z,2.70
2022-08-25T00:08:08.111Z,2.85
2022-08-25T00:08:20.049Z,2.72
2022-08-25T00:08:34.839Z,2.80
2022-08-25T00:08:47.536Z,2.70
2022-08-25T00:08:59.952Z,2.80
2022-08-25T00:09:14.182Z,2.88
2022-08-25T00:09:27.440Z,2.70
2022-08-25T00:09:39.402Z,2.53
2022-08-25T00:09:51.331Z,2.65
2022-08-25T00:10:05.526Z,2.60
2022-08-25T00:10:17.483Z,2.45
2022-08-25T00:10:29.896Z,2.60
2022-08-25T00:10:42.354Z,2.65
2022-08-25T00:11:03.253Z,2.60
2022-08-25T00:11:21.243Z,2.67
2022-08-25T00:11:35.219Z,2.60
2022-08-25T00:11:49.206Z,2.60
2022-08-25T00:12:01.788Z,2.60
2022-08-25T00:12:13.949Z,2.63
2022-08-25T00:12:26.150Z,2.72
2022-08-25T00:12:38.395Z,2.78
2022-08-25T00:12:50.305Z,2.70
2022-08-25T00:13:03.994Z,2.70
2022-08-25T00:13:15.957Z,2.58
2022-08-25T00:13:29.637Z,2.50
2022-08-25T00:13:45.044Z,2.53
2022-08-25T00:14:01.562Z,2.75
2022-08-25T00:14:17.543Z,2.60
2022-08-25T00:14:33.521Z,2.60
2022-08-25T00:14:45.546Z,2.67
2022-08-25T00:14:57.970Z,2.60
2022-08-25T00:15:11.017Z,2.70
2022-08-25T00:15:23.846Z,2.60
2022-08-25T00:15:36.102Z,2.60
2022-08-25T00:15:48.252Z,2.80
2022-08-25T00:16:00.527Z,2.67
2022-08-25T00:16:15.202Z,2.60
2022-08-25T00:16:28.089Z,2.50
2022-08-25T00:16:40.117Z,2.50
2022-08-25T00:16:52.334Z,2.67
2022-08-25T00:17:08.083Z,2.80
2022-08-25T00:17:20.039Z,2.78
2022-08-25T00:17:32.002Z,2.67
2022-08-25T00:17:44.075Z,2.58
2022-08-25T00:17:56.245Z,2.60
2022-08-25T00:18:19.326Z,2.70
2022-08-25T00:18:32.015Z,2.90
2022-08-25T00:18:47.545Z,2.60
2022-08-25T00:19:05.092Z,2.60
2022-08-25T00:19:21.607Z,2.80
2022-08-25T00:19:36.335Z,2.50
2022-08-25T00:19:48.314Z,2.60
2022-08-25T00:20:00.250Z,2.70
2022-08-25T00:20:12.842Z,2.45
2022-08-25T00:20:25.649Z,2.50
2022-08-25T00:20:37.617Z,2.72
2022-08-25T00:20:53.150Z,2.83
2022-08-25T00:21:06.556Z,2.75
2022-08-25T00:21:18.817Z,2.80
2022-08-25T00:21:31.829Z,2.75
2022-08-25T00:21:45.086Z,2.53
2022-08-25T00:21:57.022Z,2.60
2022-08-25T00:22:09.053Z,2.80
2022-08-25T00:22:21.055Z,2.80
2022-08-25T00:22:32.987Z,2.78
2022-08-25T00:22:45.298Z,2.63
2022-08-25T00:22:57.694Z,2.58
2022-08-25T00:23:09.631Z,2.50
2022-08-25T00:23:21.879Z,2.50
2022-08-25T00:23:34.282Z,2.58
2022-08-25T00:23:46.560Z,2.70
2022-08-25T00:23:59.666Z,2.80
2022-08-25T00:24:13.183Z,2.88
2022-08-25T00:24:25.539Z,2.83
2022-08-25T00:24:37.566Z,2.63
2022-08-25T00:24:49.475Z,2.90
2022-08-25T00:25:01.551Z,2.90
2022-08-25T00:25:13.621Z,2.90
2022-08-25T00:25:25.622Z,2.75
2022-08-25T00:25:37.571Z,2.67
2022-08-25T00:25:50.828Z,2.65
2022-08-25T00:26:02.785Z,2.70
2022-08-25T00:26:15.600Z,2.70
2022-08-25T00:26:28.459Z,2.70
2022-08-25T00:26:43.759Z,2.70
2022-08-25T00:26:58.353Z,2.70
2022-08-25T00:27:12.683Z,2.70
2022-08-25T00:27:24.477Z,2.70
2022-08-25T00:27:36.395Z,2.73
2022-08-25T00:27:48.527Z,2.85
2022-08-25T00:28:03.094Z,2.97
2022-08-25T00:28:18.947Z,3.05
2022-08-25T00:28:31.043Z,2.83
2022-08-25T00:28:43.696Z,2.72
2022-08-25T00:28:56.393Z,2.75
2022-08-25T00:29:14.506Z,3.08
2022-08-25T00:29:27.699Z,3.00
2022-08-25T00:29:39.713Z,2.85
2022-08-25T00:29:51.644Z,2.97
2022-08-25T00:30:05.701Z,3.00
2022-08-25T00:30:19.011Z,2.72
2022-08-25T00:30:31.074Z,2.70
2022-08-25T00:30:43.732Z,2.70
2022-08-25T00:30:55.891Z,2.63
2022-08-25T00:31:16.447Z,2.97
2022-08-25T00:31:38.215Z,3.40
2022-08-25T00:31:52.363Z,3.03
2022-08-25T00:32:05.601Z,2.90
2022-08-25T00:32:18.299Z,2.80
2022-08-25T00:32:30.259Z,2.80
2022-08-25T00:32:43.319Z,2.70
2022-08-25T00:33:04.442Z,2.85
2022-08-25T00:33:17.589Z,2.97
2022-08-25T00:33:33.587Z,2.88
2022-08-25T00:33:47.298Z,2.72
2022-08-25T00:34:00.193Z,2.90
2022-08-25T00:34:15.924Z,2.90
2022-08-25T00:34:34.208Z,2.65
2022-08-25T00:34:46.282Z,2.70
2022-08-25T00:34:58.521Z,2.80
2022-08-25T00:35:10.726Z,2.83
2022-08-25T00:35:24.432Z,2.67
2022-08-25T00:35:36.824Z,2.60
2022-08-25T00:35:48.777Z,2.78
2022-08-25T00:36:01.061Z,2.90
2022-08-25T00:36:13.242Z,2.70
2022-08-25T00:36:26.516Z,2.55
2022-08-25T00:36:39.001Z,2.80
2022-08-25T00:36:54.025Z,3.10
2022-08-25T00:37:09.107Z,3.17
2022-08-25T00:37:21.169Z,2.70
2022-08-25T00:37:33.204Z,2.60
2022-08-25T00:37:45.235Z,2.72
2022-08-25T00:37:57.182Z,3.00
2022-08-25T00:38:10.812Z,3.05
2022-08-25T00:38:23.365Z,3.10
2022-08-25T00:38:35.667Z,3.25
2022-08-25T00:38:49.923Z,3.22
2022-08-25T00:39:02.026Z,3.17
2022-08-25T00:39:14.347Z,3.00
2022-08-25T00:39:27.537Z,2.90
2022-08-25T00:39:39.915Z,3.00
2022-08-25T00:39:53.025Z,2.95
2022-08-25T00:40:06.231Z,3.00
2022-08-25T00:40:18.360Z,2.90
2022-08-25T00:40:30.455Z,2.80
2022-08-25T00:40:42.727Z,2.78
2022-08-25T00:41:07.170Z,2.80
2022-08-25T00:41:23.910Z,3.00
2022-08-25T00:41:37.572Z,3.40
2022-08-25T00:41:51.607Z,3.28
2022-08-25T00:42:04.930Z,2.85
2022-08-25T00:42:24.836Z,2.90
2022-08-25T00:42:38.418Z,3.00
2022-08-25T00:42:50.533Z,2.97
2022-08-25T00:43:03.124Z,2.90
2022-08-25T00:43:15.090Z,2.83
2022-08-25T00:43:27.670Z,2.92
2022-08-25T00:43:42.641Z,2.97
2022-08-25T00:44:01.247Z,3.10
2022-08-25T00:44:14.504Z,2.80
2022-08-25T00:44:29.439Z,2.72
2022-08-25T00:44:43.754Z,2.88
2022-08-25T00:44:56.451Z,2.80
2022-08-25T00:45:09.515Z,2.83
2022-08-25T00:45:23.128Z,2.90
2022-08-25T00:45:35.655Z,3.00
2022-08-25T00:45:47.600Z,3.10
2022-08-25T00:45:59.569Z,3.03
2022-08-25T00:46:18.886Z,3.00
2022-08-25T00:46:43.027Z,2.85
2022-08-25T00:46:58.074Z,2.88
2022-08-25T00:47:10.279Z,3.00
2022-08-25T00:47:22.267Z,3.00
2022-08-25T00:47:34.544Z,3.00
2022-08-25T00:47:47.323Z,2.90
2022-08-25T00:48:00.156Z,2.83
2022-08-25T00:48:12.183Z,2.83
2022-08-25T00:48:24.132Z,2.85
2022-08-25T00:48:38.827Z,2.80
2022-08-25T00:49:00.024Z,2.95
2022-08-25T00:49:24.901Z,2.90
2022-08-25T00:49:44.856Z,2.85
2022-08-25T00:50:01.432Z,2.97
2022-08-25T00:50:15.735Z,3.00
2022-08-25T00:50:31.931Z,2.80
2022-08-25T00:50:44.084Z,2.90
2022-08-25T00:50:56.428Z,3.13
2022-08-25T00:51:11.586Z,3.03
2022-08-25T00:51:37.630Z,2.88
2022-08-25T00:51:52.354Z,2.85
2022-08-25T00:52:09.165Z,2.88
2022-08-25T00:52:22.814Z,3.05
2022-08-25T00:52:39.502Z,3.30
2022-08-25T00:52:56.032Z,3.22
2022-08-25T00:53:08.466Z,3.08
2022-08-25T00:53:21.031Z,3.03
2022-08-25T00:53:33.110Z,3.00
2022-08-25T00:53:45.839Z,3.05
2022-08-25T00:53:58.394Z,3.03
2022-08-25T00:54:18.585Z,2.90
2022-08-25T00:54:37.045Z,2.78
2022-08-25T00:55:03.054Z,2.90
2022-08-25T00:55:25.378Z,3.00
2022-08-25T00:55:40.175Z,3.10
2022-08-25T00:55:52.635Z,3.08
2022-08-25T00:56:04.763Z,3.03
2022-08-25T00:56:17.761Z,2.97
2022-08-25T00:56:34.765Z,2.92
2022-08-25T00:56:47.086Z,3.00
2022-08-25T00:57:01.099Z,3.00
2022-08-25T00:57:16.689Z,2.97
2022-08-25T00:57:35.880Z,3.20
2022-08-25T00:58:02.819Z,3.50
2022-08-25T00:58:27.591Z,3.25
2022-08-25T00:58:41.875Z,3.35
2022-08-25T00:58:55.014Z,3.38
2022-08-25T00:59:06.955Z,3.25
2022-08-25T00:59:24.159Z,3.35
2022-08-25T00:59:36.817Z,3.25
2022-08-25T00:59:48.975Z,3.05
2022-08-25T01:00:13.444Z,3.00
2022-08-25T01:00:31.618Z,2.95
2022-08-25T01:00:48.380Z,2.75
2022-08-25T01:01:00.593Z,3.10
2022-08-25T01:01:12.608Z,3.22
2022-08-25T01:01:25.293Z,3.20
2022-08-25T01:01:37.379Z,3.13
2022-08-25T01:01:51.157Z,3.10
2022-08-25T01:02:05.661Z,3.20
2022-08-25T01:02:19.892Z,3.10
2022-08-25T01:02:32.019Z,2.95
2022-08-25T01:02:44.022Z,3.05
2022-08-25T01:02:57.313Z,3.30
2022-08-25T01:03:11.156Z,3.50
2022-08-25T01:03:32.925Z,3.47
2022-08-25T01:03:45.448Z,3.33
2022-08-25T01:03:57.509Z,3.35
2022-08-25T01:04:09.563Z,3.20
2022-08-25T01:04:22.264Z,3.28
2022-08-25T01:04:34.342Z,3.20
2022-08-25T01:04:48.943Z,3.13
2022-08-25T01:05:01.279Z,3.28
2022-08-25T01:05:13.312Z,3.40
2022-08-25T01:05:26.938Z,3.38
2022-08-25T01:05:41.137Z,3.10
2022-08-25T01:05:55.304Z,3.10
2022-08-25T01:06:07.557Z,3.17
2022-08-25T01:06:19.727Z,3.13
2022-08-25T01:06:35.946Z,3.15
2022-08-25T01:06:48.944Z,3.45
2022-08-25T01:07:02.109Z,3.50
2022-08-25T01:07:17.418Z,3.40
2022-08-25T01:07:30.043Z,3.22
2022-08-25T01:07:44.757Z,3.30
2022-08-25T01:07:59.526Z,3.40
2022-08-25T01:08:13.069Z,3.50
2022-08-25T01:08:29.757Z,3.40
2022-08-25T01:08:44.328Z,3.28
2022-08-25T01:08:56.307Z,3.10
2022-08-25T01:09:08.535Z,2.92
2022-08-25T01:09:21.153Z,3.08
2022-08-25T01:09:33.770Z,3.17
2022-08-25T01:09:49.747Z,3.35
2022-08-25T01:10:02.260Z,3.30
2022-08-25T01:10:14.301Z,3.10
2022-08-25T01:10:28.126Z,3.15
2022-08-25T01:10:43.498Z,3.33
2022-08-25T01:10:58.131Z,3.50
2022-08-25T01:11:11.863Z,3.47
2022-08-25T01:11:23.889Z,3.30
2022-08-25T01:11:35.958Z,3.20
2022-08-25T01:11:48.595Z,3.17
2022-08-25T01:12:01.130Z,3.30
2022-08-25T01:12:13.537Z,3.40
2022-08-25T01:12:25.877Z,3.40
2022-08-25T01:12:38.012Z,3.33
2022-08-25T01:12:53.071Z,3.42
2022-08-25T01:13:16.570Z,3.20
2022-08-25T01:13:37.877Z,3.45
2022-08-25T01:13:53.724Z,3.58
2022-08-25T01:14:07.036Z,3.38
2022-08-25T01:14:21.618Z,3.40
2022-08-25T01:14:35.070Z,3.30
2022-08-25T01:14:49.927Z,3.30
2022-08-25T01:15:03.559Z,3.50
2022-08-25T01:15:16.202Z,3.60
2022-08-25T01:15:28.958Z,3.30
2022-08-25T01:15:41.829Z,3.40
2022-08-25T01:15:55.750Z,3.40
2022-08-25T01:16:07.989Z,3.15
2022-08-25T01:16:20.393Z,3.10
2022-08-25T01:16:37.979Z,3.08
2022-08-25T01:16:51.102Z,3.40
2022-08-25T01:17:05.830Z,3.53
2022-08-25T01:17:17.942Z,3.33
2022-08-25T01:17:47.407Z,3.20
2022-08-25T01:17:59.838Z,3.30
2022-08-25T01:18:12.146Z,3.25
2022-08-25T01:18:25.159Z,3.25
2022-08-25T01:18:51.673Z,3.40
2022-08-25T01:19:05.253Z,3.17
2022-08-25T01:19:17.220Z,3.10
2022-08-25T01:19:30.211Z,3.40
2022-08-25T01:19:42.687Z,3.55
2022-08-25T01:19:55.759Z,3.47
2022-08-25T01:20:08.259Z,3.40
2022-08-25T01:20:23.401Z,3.50
2022-08-25T01:20:42.014Z,3.65
2022-08-25T01:20:58.831Z,3.42
2022-08-25T01:21:10.861Z,3.10
2022-08-25T01:21:25.615Z,3.33
2022-08-25T01:21:42.962Z,3.50
2022-08-25T01:21:55.246Z,3.40
2022-08-25T01:22:08.465Z,3.30
2022-08-25T01:22:20.790Z,3.35
2022-08-25T01:22:32.734Z,3.30
2022-08-25T01:22:44.792Z,3.20
2022-08-25T01:23:02.135Z,3.38
2022-08-25T01:23:14.190Z,3.40
2022-08-25T01:23:26.520Z,3.40
2022-08-25T01:23:38.606Z,3.40
2022-08-25T01:23:52.458Z,3.33
2022-08-25T01:24:05.860Z,3.20
2022-08-25T01:24:59.079Z,3.30
2022-08-25T01:25:21.864Z,3.30
2022-08-25T01:25:46.393Z,3.50
2022-08-25T01:26:04.199Z,3.70
2022-08-25T01:26:30.617Z,3.63
2022-08-25T01:26:42.878Z,3.38
2022-08-25T01:26:54.839Z,3.55
2022-08-25T01:27:08.080Z,3.65
2022-08-25T01:27:20.249Z,3.63
2022-08-25T01:27:32.232Z,3.33
2022-08-25T01:27:44.163Z,3.30
2022-08-25T01:27:56.149Z,3.20
2022-08-25T01:28:08.575Z,3.53
2022-08-25T01:28:21.178Z,3.60
2022-08-25T01:28:33.837Z,3.70
2022-08-25T01:29:05.933Z,3.60
2022-08-25T01:29:21.031Z,3.28
2022-08-25T01:29:33.783Z,3.60
2022-08-25T01:29:45.816Z,3.75
2022-08-25T01:29:58.006Z,3.60
2022-08-25T01:30:10.439Z,3.40
2022-08-25T01:30:23.724Z,3.53
2022-08-25T01:30:36.562Z,3.50
2022-08-25T01:30:50.041Z,3.45
2022-08-25T01:31:02.271Z,3.50
2022-08-25T01:31:23.487Z,3.60
2022-08-25T01:31:38.024Z,3.42
2022-08-25T01:31:54.675Z,3.50
2022-08-25T01:32:12.031Z,3.58
2022-08-25T01:32:24.515Z,3.40
2022-08-25T01:32:36.506Z,3.30
2022-08-25T01:32:49.170Z,3.25
2022-08-25T01:33:05.872Z,3.38
2022-08-25T01:33:18.610Z,3.70
2022-08-25T01:33:30.657Z,3.75
2022-08-25T01:33:42.638Z,3.60
2022-08-25T01:33:54.905Z,3.60
2022-08-25T01:34:08.215Z,3.40
2022-08-25T01:34:21.288Z,3.30
2022-08-25T01:34:36.055Z,3.28
2022-08-25T01:34:48.300Z,3.42
2022-08-25T01:35:04.025Z,3.40
2022-08-25T01:35:16.560Z,3.30
2022-08-25T01:35:28.570Z,3.33
2022-08-25T01:35:41.012Z,3.80
2022-08-25T01:35:53.811Z,3.80
2022-08-25T01:36:05.969Z,3.70
2022-08-25T01:36:20.001Z,3.65
2022-08-25T01:36:32.500Z,3.55
2022-08-25T01:36:45.355Z,3.42
2022-08-25T01:36:59.120Z,3.47
2022-08-25T01:37:13.893Z,3.28
2022-08-25T01:37:25.850Z,3.22
2022-08-25T01:37:37.888Z,3.33
2022-08-25T01:37:50.028Z,3.38
2022-08-25T01:38:04.219Z,3.53
2022-08-25T01:38:16.810Z,3.60
2022-08-25T01:38:29.536Z,3.58
2022-08-25T01:38:41.496Z,3.42
2022-08-25T01:38:54.188Z,3.40
2022-08-25T01:39:06.204Z,3.40
2022-08-25T01:39:18.294Z,3.53
2022-08-25T01:39:33.860Z,3.60
2022-08-25T01:39:46.551Z,3.50
2022-08-25T01:39:58.568Z,3.47
2022-08-25T01:40:11.768Z,3.45
2022-08-25T01:40:23.785Z,3.40
2022-08-25T01:40:37.483Z,3.40
2022-08-25T01:40:49.501Z,3.65
2022-08-25T01:41:01.469Z,3.78
2022-08-25T01:41:17.307Z,3.95
2022-08-25T01:41:29.167Z,3.72
2022-08-25T01:42:11.516Z,3.50
2022-08-25T01:43:00.959Z,3.42
2022-08-25T01:43:24.076Z,3.90
2022-08-25T01:43:38.327Z,3.60
2022-08-25T01:43:50.238Z,3.50
2022-08-25T01:44:05.758Z,3.58
2022-08-25T01:44:18.340Z,3.55
2022-08-25T01:44:33.085Z,3.60
2022-08-25T01:44:47.070Z,3.72
2022-08-25T01:44:59.077Z,3.95
2022-08-25T01:45:11.143Z,3.90
2022-08-25T01:45:23.245Z,4.00
2022-08-25T01:45:35.972Z,4.10
2022-08-25T01:45:48.870Z,4.03
2022-08-25T01:46:00.880Z,4.03
2022-08-25T01:46:12.941Z,4.13
2022-08-25T01:46:25.111Z,4.28
2022-08-25T01:46:37.141Z,3.70
2022-08-25T01:46:49.308Z,3.55
2022-08-25T01:47:02.097Z,3.65
2022-08-25T01:47:15.142Z,3.60
2022-08-25T01:47:27.134Z,3.88
2022-08-25T01:47:39.086Z,3.80
2022-08-25T01:47:51.082Z,3.95
2022-08-25T01:48:03.577Z,3.80
2022-08-25T01:48:16.620Z,3.72
2022-08-25T01:48:28.571Z,3.70
2022-08-25T01:48:40.537Z,3.67
2022-08-25T01:48:52.458Z,3.70
2022-08-25T01:49:06.802Z,3.50
2022-08-25T01:49:18.901Z,3.50
2022-08-25T01:49:30.862Z,3.60
2022-08-25T01:49:43.069Z,3.65
2022-08-25T01:49:55.086Z,3.42
2022-08-25T01:50:07.732Z,3.55
2022-08-25T01:50:19.808Z,3.70
2022-08-25T01:50:31.804Z,3.78
2022-08-25T01:50:44.162Z,3.83
2022-08-25T01:50:56.116Z,3.90
2022-08-25T01:51:08.094Z,3.90
2022-08-25T01:51:24.004Z,3.80
2022-08-25T01:51:51.325Z,3.63
2022-08-25T01:52:23.328Z,3.65
2022-08-25T01:52:58.492Z,3.70
2022-08-25T01:53:22.961Z,3.70
2022-08-25T01:53:34.925Z,3.67
2022-08-25T01:53:47.172Z,3.80
2022-08-25T01:53:59.140Z,4.00
2022-08-25T01:54:11.070Z,3.95
2022-08-25T01:54:23.368Z,3.90
2022-08-25T01:54:35.315Z,3.67
2022-08-25T01:54:47.299Z,3.70
2022-08-25T01:54:59.245Z,3.83
2022-08-25T01:55:11.194Z,3.95
2022-08-25T01:55:23.217Z,3.75
2022-08-25T01:55:51.662Z,3.72
2022-08-25T01:56:12.624Z,3.55
2022-08-25T01:56:24.691Z,3.67
2022-08-25T01:56:36.627Z,3.70
2022-08-25T01:56:48.641Z,3.80
2022-08-25T01:57:00.591Z,3.75
2022-08-25T01:57:12.576Z,3.70
2022-08-25T01:57:24.920Z,3.97
2022-08-25T01:57:36.880Z,4.00
2022-08-25T01:57:48.887Z,3.88
2022-08-25T01:58:00.885Z,4.03
2022-08-25T01:58:12.878Z,3.88
2022-08-25T01:58:31.351Z,3.60
2022-08-25T01:58:47.082Z,3.50
2022-08-25T01:58:59.108Z,3.60
2022-08-25T01:59:11.091Z,3.65
2022-08-25T01:59:24.186Z,3.70
2022-08-25T01:59:36.516Z,3.63
2022-08-25T01:59:48.663Z,3.67
2022-08-25T02:00:01.489Z,3.80
2022-08-25T02:00:15.312Z,4.03
2022-08-25T02:00:27.439Z,4.10
2022-08-25T02:00:45.753Z,3.85
2022-08-25T02:01:01.501Z,3.47
2022-08-25T02:01:17.788Z,3.55
2022-08-25T02:01:30.403Z,3.72
2022-08-25T02:01:42.544Z,3.80
2022-08-25T02:01:59.644Z,3.90
2022-08-25T02:02:12.295Z,4.03
2022-08-25T02:02:24.471Z,3.90
2022-08-25T02:02:40.293Z,3.97
2022-08-25T02:02:55.526Z,4.10
2022-08-25T02:03:11.675Z,4.00
2022-08-25T02:03:30.968Z,3.60
2022-08-25T02:03:47.279Z,3.67
2022-08-25T02:04:00.292Z,3.80
2022-08-25T02:04:12.296Z,3.92
2022-08-25T02:04:24.413Z,3.80
2022-08-25T02:04:37.304Z,3.70
2022-08-25T02:04:49.324Z,3.75
2022-08-25T02:05:03.347Z,3.80
2022-08-25T02:05:20.302Z,3.97
2022-08-25T02:05:35.505Z,4.00
2022-08-25T02:05:48.709Z,3.72
2022-08-25T02:06:01.322Z,3.70
2022-08-25T02:06:28.835Z,3.70
2022-08-25T02:06:42.086Z,4.13
2022-08-25T02:06:54.832Z,3.97
2022-08-25T02:07:08.617Z,3.83
2022-08-25T02:07:20.760Z,3.80
2022-08-25T02:07:32.929Z,3.72
2022-08-25T02:07:44.948Z,3.58
2022-08-25T02:07:56.890Z,3.88
2022-08-25T02:08:09.140Z,3.85
2022-08-25T02:08:23.100Z,3.90
2022-08-25T02:08:35.251Z,3.85
2022-08-25T02:08:51.850Z,3.70
2022-08-25T02:09:15.655Z,3.80
2022-08-25T02:09:28.466Z,4.10
2022-08-25T02:09:40.519Z,4.10
2022-08-25T02:09:52.910Z,3.90
2022-08-25T02:10:06.894Z,3.70
2022-08-25T02:10:18.931Z,3.67
2022-08-25T02:10:32.697Z,3.80
2022-08-25T02:10:45.955Z,3.90
2022-08-25T02:10:57.947Z,3.80
2022-08-25T02:11:13.765Z,3.70
2022-08-25T02:11:25.862Z,3.72
2022-08-25T02:11:40.418Z,3.90
2022-08-25T02:11:52.370Z,3.97
2022-08-25T02:12:04.973Z,3.90
2022-08-25T02:12:17.140Z,3.90
2022-08-25T02:12:30.316Z,3.75
2022-08-25T02:12:42.286Z,3.83
2022-08-25T02:12:54.517Z,3.73
2022-08-25T02:13:08.431Z,3.75
2022-08-25T02:13:20.814Z,3.58
2022-08-25T02:13:40.523Z,3.65
2022-08-25T02:13:52.838Z,3.75
2022-08-25T02:14:05.690Z,3.63
2022-08-25T02:14:19.814Z,3.78
2022-08-25T02:14:31.791Z,3.83
2022-08-25T02:14:43.817Z,3.90
2022-08-25T02:14:55.815Z,4.00
2022-08-25T02:15:08.826Z,4.20
2022-08-25T02:15:20.804Z,4.15
2022-08-25T02:15:33.392Z,4.15
2022-08-25T02:15:49.459Z,4.07
2022-08-25T02:16:02.283Z,3.75
2022-08-25T02:16:22.890Z,3.80
2022-08-25T02:16:37.380Z,3.85
2022-08-25T02:16:51.408Z,3.78
2022-08-25T02:17:04.980Z,3.72
2022-08-25T02:17:17.261Z,3.70
2022-08-25T02:17:29.844Z,3.80
2022-08-25T02:17:41.831Z,3.80
2022-08-25T02:17:53.844Z,3.80
2022-08-25T02:18:06.009Z,3.88
2022-08-25T02:18:19.645Z,4.00
2022-08-25T02:18:31.664Z,3.88
2022-08-25T02:18:43.870Z,3.63
2022-08-25T02:18:56.576Z,3.70
2022-08-25T02:19:11.789Z,3.80
2022-08-25T02:19:25.758Z,3.75
2022-08-25T02:19:38.016Z,3.70
2022-08-25T02:19:49.982Z,3.60
2022-08-25T02:20:03.536Z,3.65
2022-08-25T02:20:15.624Z,3.90
2022-08-25T02:20:27.648Z,4.00
2022-08-25T02:20:39.967Z,4.10
2022-08-25T02:20:52.173Z,3.88
2022-08-25T02:21:04.239Z,3.88
2022-08-25T02:21:16.576Z,3.90
2022-08-25T02:21:28.773Z,4.10
2022-08-25T02:21:40.720Z,4.20
2022-08-25T02:21:52.966Z,3.80
2022-08-25T02:22:04.941Z,3.65
2022-08-25T02:22:17.324Z,3.65
2022-08-25T02:22:29.311Z,3.60
2022-08-25T02:22:41.265Z,3.85
2022-08-25T02:23:01.125Z,4.10
2022-08-25T02:23:13.599Z,4.20
2022-08-25T02:23:26.937Z,4.13
2022-08-25T02:23:38.903Z,4.00
2022-08-25T02:23:51.194Z,4.22
2022-08-25T02:24:04.038Z,4.22
2022-08-25T02:24:16.453Z,4.05
2022-08-25T02:24:28.985Z,3.90
2022-08-25T02:24:40.999Z,3.92
2022-08-25T02:24:52.932Z,4.10
2022-08-25T02:25:06.289Z,4.15
2022-08-25T02:25:19.342Z,3.95
2022-08-25T02:25:32.143Z,3.80
2022-08-25T02:25:44.315Z,4.10
2022-08-25T02:25:57.165Z,4.00
2022-08-25T02:26:10.227Z,4.10
2022-08-25T02:26:22.464Z,4.15
2022-08-25T02:26:36.310Z,4.18
2022-08-25T02:26:48.841Z,3.92
2022-08-25T02:27:01.181Z,4.00
2022-08-25T02:27:13.120Z,4.05
2022-08-25T02:27:25.242Z,3.97
2022-08-25T02:27:37.271Z,3.95
2022-08-25T02:27:49.226Z,3.97
2022-08-25T02:28:01.248Z,3.97
2022-08-25T02:28:13.731Z,3.88
2022-08-25T02:28:26.167Z,4.00
2022-08-25T02:28:38.134Z,4.22
2022-08-25T02:28:52.010Z,4.20
2022-08-25T02:29:05.279Z,4.32
2022-08-25T02:29:18.245Z,4.30
2022-08-25T02:29:30.419Z,4.22
2022-08-25T02:29:42.481Z,3.97
2022-08-25T02:29:55.694Z,4.07
2022-08-25T02:30:08.333Z,4.07
2022-08-25T02:30:21.467Z,4.03
2022-08-25T02:30:33.505Z,3.92
2022-08-25T02:30:45.841Z,3.97
2022-08-25T02:31:01.288Z,4.18
2022-08-25T02:31:14.506Z,4.05
2022-08-25T02:31:27.419Z,4.03
2022-08-25T02:31:39.947Z,4.10
2022-08-25T02:31:51.910Z,4.20
2022-08-25T02:32:04.245Z,4.20
2022-08-25T02:32:16.167Z,4.30
2022-08-25T02:32:28.139Z,4.22
2022-08-25T02:32:40.856Z,4.50
2022-08-25T02:32:52.995Z,4.50
2022-08-25T02:33:04.963Z,4.30
2022-08-25T02:33:16.922Z,4.20
2022-08-25T02:33:29.322Z,4.10
2022-08-25T02:33:41.461Z,4.20
2022-08-25T02:33:53.785Z,4.18
2022-08-25T02:34:07.127Z,4.07
2022-08-25T02:34:19.162Z,4.05
2022-08-25T02:34:31.133Z,4.25
2022-08-25T02:34:43.180Z,3.97
2022-08-25T02:34:55.118Z,4.00
2022-08-25T02:35:08.422Z,3.92
2022-08-25T02:35:20.538Z,3.90
2022-08-25T02:35:32.509Z,3.85
2022-08-25T02:35:44.997Z,4.13
2022-08-25T02:35:59.444Z,4.10
2022-08-25T02:36:12.351Z,4.03
2022-08-25T02:36:24.368Z,4.00
2022-08-25T02:36:37.865Z,4.18
2022-08-25T02:36:49.893Z,4.05
2022-08-25T02:37:02.072Z,4.22
2022-08-25T02:37:14.555Z,4.32
2022-08-25T02:37:26.518Z,4.28
2022-08-25T02:37:38.444Z,4.13
2022-08-25T02:37:52.363Z,4.30
2022-08-25T02:38:07.215Z,4.28
2022-08-25T02:38:19.200Z,4.20
2022-08-25T02:38:31.338Z,4.60
2022-08-25T02:38:43.336Z,4.45
2022-08-25T02:38:55.339Z,4.30
2022-08-25T02:39:08.944Z,4.25
2022-08-25T02:39:20.935Z,4.30
2022-08-25T02:39:32.896Z,4.20
2022-08-25T02:39:44.859Z,4.20
2022-08-25T02:39:56.837Z,4.15
2022-08-25T02:40:09.566Z,4.00
2022-08-25T02:40:22.383Z,3.80
2022-08-25T02:40:34.675Z,3.95
2022-08-25T02:40:46.602Z,4.10
2022-08-25T02:41:00.230Z,4.30
2022-08-25T02:41:15.751Z,4.45
2022-08-25T02:41:31.387Z,4.28
2022-08-25T02:41:43.722Z,4.18
2022-08-25T02:41:55.695Z,3.83
2022-08-25T02:42:07.643Z,3.80
2022-08-25T02:42:19.670Z,4.13
2022-08-25T02:42:31.667Z,4.28
2022-08-25T02:42:44.606Z,4.13
2022-08-25T02:42:57.342Z,4.13
2022-08-25T02:43:09.395Z,4.18
2022-08-25T02:43:21.914Z,4.35
2022-08-25T02:43:34.097Z,4.22
2022-08-25T02:43:48.462Z,4.28
2022-08-25T02:44:02.275Z,4.20
2022-08-25T02:44:14.326Z,4.30
2022-08-25T02:44:26.262Z,4.10
2022-08-25T02:44:38.191Z,4.13
2022-08-25T02:44:50.267Z,4.40
2022-08-25T02:45:02.769Z,4.50
2022-08-25T02:45:14.695Z,4.43
2022-08-25T02:45:26.886Z,4.40
2022-08-25T02:45:38.875Z,4.43
2022-08-25T02:45:51.895Z,4.30
2022-08-25T02:46:03.951Z,4.20
2022-08-25T02:46:21.795Z,4.35
2022-08-25T02:46:34.883Z,4.25
2022-08-25T02:46:46.811Z,4.18
2022-08-25T02:46:59.139Z,4.22
2022-08-25T02:47:11.172Z,4.30
2022-08-25T02:47:26.849Z,4.50
2022-08-25T02:47:40.303Z,4.30
2022-08-25T02:47:52.725Z,4.22
2022-08-25T02:48:04.958Z,4.22
2022-08-25T02:48:17.159Z,4.13
2022-08-25T02:48:29.080Z,4.05
2022-08-25T02:48:41.483Z,4.25
2022-08-25T02:48:53.784Z,4.13
2022-08-25T02:49:07.455Z,4.00
2022-08-25T02:49:19.409Z,4.20
2022-08-25T02:49:32.019Z,4.32
2022-08-25T02:49:44.574Z,4.47
2022-08-25T02:49:56.747Z,4.47
2022-08-25T02:50:09.697Z,4.40
2022-08-25T02:50:21.848Z,4.30
2022-08-25T02:50:33.811Z,4.30
2022-08-25T02:50:51.547Z,4.47
2022-08-25T02:51:06.435Z,4.47
2022-08-25T02:51:19.751Z,4.18
2022-08-25T02:51:31.977Z,4.10
2022-08-25T02:51:44.084Z,4.20
2022-08-25T02:51:56.283Z,4.35
2022-08-25T02:52:08.544Z,4.38
2022-08-25T02:52:20.496Z,4.45
2022-08-25T02:52:32.867Z,4.40
2022-08-25T02:52:45.244Z,4.25
2022-08-25T02:52:57.217Z,4.15
2022-08-25T02:53:09.141Z,4.13
2022-08-25T02:53:21.911Z,4.18
2022-08-25T02:53:34.779Z,4.10
2022-08-25T02:53:48.012Z,4.20
2022-08-25T02:54:04.954Z,4.03
2022-08-25T02:54:16.862Z,4.18
2022-08-25T02:54:29.195Z,4.30
2022-08-25T02:54:42.896Z,4.20
2022-08-25T02:54:55.464Z,4.30
2022-08-25T02:55:12.739Z,4.18
2022-08-25T02:55:24.707Z,4.20
2022-08-25T02:55:36.855Z,4.30
2022-08-25T02:55:48.826Z,4.28
2022-08-25T02:56:00.843Z,4.25
2022-08-25T02:56:14.936Z,4.35
2022-08-25T02:56:26.960Z,4.22
2022-08-25T02:56:40.076Z,4.30
2022-08-25T02:56:52.010Z,4.40
2022-08-25T02:57:04.290Z,4.30
2022-08-25T02:57:16.448Z,4.10
2022-08-25T02:57:28.384Z,4.28
2022-08-25T02:57:42.039Z,4.18
2022-08-25T02:57:53.979Z,4.28
2022-08-25T02:58:06.544Z,4.30
2022-08-25T02:58:19.434Z,4.13
2022-08-25T02:58:31.376Z,4.35
2022-08-25T02:58:44.186Z,4.60
2022-08-25T02:58:56.985Z,4.22
2022-08-25T02:59:08.974Z,4.38
2022-08-25T02:59:21.002Z,4.40
2022-08-25T02:59:32.938Z,4.20
2022-08-25T02:59:48.221Z,4.43
2022-08-25T03:00:00.359Z,4.50
2022-08-25T03:00:15.063Z,4.30
2022-08-25T03:00:27.016Z,4.20
2022-08-25T03:00:38.989Z,4.43
2022-08-25T03:00:53.213Z,4.40
2022-08-25T03:01:06.732Z,4.38
2022-08-25T03:01:18.774Z,4.72
2022-08-25T03:01:32.654Z,4.50
2022-08-25T03:01:45.091Z,4.28
2022-08-25T03:01:57.267Z,4.60
2022-08-25T03:02:09.210Z,4.53
2022-08-25T03:02:21.643Z,4.28
2022-08-25T03:02:33.751Z,3.83
2022-08-25T03:02:46.581Z,3.95
2022-08-25T03:02:58.513Z,4.00
2022-08-25T03:03:10.471Z,4.05
2022-08-25T03:03:22.591Z,4.03
2022-08-25T03:03:39.193Z,4.40
2022-08-25T03:03:52.322Z,4.35
2022-08-25T03:04:04.487Z,4.15